Verona Beach, New York
Current Conditions -  °F | °C
As of 10:53 AM on Friday 24 Oct 2014 (Local Time) from KRME Reporting Station
Broken Clouds Broken Clouds  
Wind Chill: 50°   Ceiling: 6500
Heat Index: 50°   Visibility: 10mi
Dew Point: 44°   Wind: 10mph
Humidity: 80%   Direction: 280°W
Pressure: 29.92"   Gusts: NA
Location:  43.19°N, 75.73°W
Report Text: KRME 241453Z 28009KT 10SM BKN065 BKN100 10/07 A2992 RMK AO2 SLP133 T01000067 58005
Loading
Personal Weather Stations






























Interactive Weather Map
Tropical Storm Tracking
New forecast layout! Learn more

10-Day Weather Forecast

Advertisements
Track Severe Weather on mobile